Time;durP1;ratioP1;P1;durP2;ratioP2;P2;SDS_P1;SDS_P2;PMS_P1;PMS_P2;Temp;Humidity;BMP_temperature;BMP_pressure;BME280_temperature;BME280_humidity;BME280_pressure;Samples;Min_cycle;Max_cycle;Signal;HPM_P1;HPM_P2
2023/03/22 00:00:43;;;;;;;11.48;7.40;;;10.10;99.90;;;;;;4906276;29;20288;-67
2023/03/22 00:03:09;;;;;;;15.68;6.78;;;10.00;99.90;;;;;;4938835;29;20483;-66
2023/03/22 00:05:35;;;;;;;9.98;6.43;;;9.90;99.90;;;;;;4902879;29;20456;-67
2023/03/22 00:08:04;;;;;;;12.98;7.15;;;9.90;99.90;;;;;;4902550;29;20150;-66
2023/03/22 00:10:30;;;;;;;8.85;5.85;;;9.90;99.90;;;;;;4903117;29;20417;-67
2023/03/22 00:12:56;;;;;;;13.40;5.68;;;9.80;99.90;;;;;;4904792;29;20404;-66
2023/03/22 00:15:22;;;;;;;10.55;6.28;;;9.90;99.90;;;;;;4900005;29;20463;-66
2023/03/22 00:17:51;;;;;;;9.50;5.40;;;9.80;99.90;;;;;;4901847;29;20037;-66
2023/03/22 00:20:18;;;;;;;13.05;5.68;;;9.70;99.90;;;;;;4908946;29;20099;-66
2023/03/22 00:22:45;;;;;;;14.20;5.95;;;9.70;99.90;;;;;;4937174;29;20456;-67
2023/03/22 00:25:11;;;;;;;13.85;5.50;;;9.70;99.90;;;;;;4906908;29;20412;-67
2023/03/22 00:27:37;;;;;;;12.57;5.68;;;9.60;99.90;;;;;;4908265;29;20039;-67
2023/03/22 00:30:04;;;;;;;10.93;5.97;;;9.60;99.90;;;;;;4909490;29;20492;-67
2023/03/22 00:32:34;;;;;;;10.68;5.90;;;9.60;99.90;;;;;;4912325;29;20038;-66
2023/03/22 00:35:01;;;;;;;12.43;5.72;;;9.50;99.90;;;;;;4943188;28;20040;-67
2023/03/22 00:37:33;;;;;;;9.32;5.15;;;9.40;99.90;;;;;;4908252;29;20407;-66
2023/03/22 00:40:03;;;;;;;14.50;5.70;;;9.40;99.90;;;;;;4911271;29;20464;-67
2023/03/22 00:42:29;;;;;;;9.80;5.03;;;9.40;99.90;;;;;;4900470;29;20464;-66
2023/03/22 00:44:55;;;;;;;12.52;4.68;;;9.40;99.90;;;;;;4913199;29;20356;-67
2023/03/22 00:47:22;;;;;;;7.85;4.57;;;9.40;99.90;;;;;;4907914;29;20274;-67
2023/03/22 00:49:48;;;;;;;9.55;4.32;;;9.40;99.90;;;;;;4940069;28;20076;-68
2023/03/22 00:52:14;;;;;;;10.82;4.13;;;9.40;99.90;;;;;;4899639;29;20107;-66
2023/03/22 00:54:39;;;;;;;7.80;3.60;;;9.40;99.90;;;;;;4938197;28;20040;-67
2023/03/22 00:57:05;;;;;;;12.02;4.32;;;9.50;99.90;;;;;;4907439;29;20047;-67
2023/03/22 00:59:36;;;;;;;12.88;4.15;;;9.50;99.90;;;;;;4938931;28;20114;-67
2023/03/22 01:02:03;;;;;;;8.77;3.47;;;9.40;99.90;;;;;;4905837;29;20135;-67
2023/03/22 01:04:30;;;;;;;9.98;3.08;;;9.40;99.90;;;;;;4907866;29;20051;-67
2023/03/22 01:07:00;;;;;;;8.55;3.15;;;9.40;99.90;;;;;;4939208;29;20071;-66
2023/03/22 01:09:28;;;;;;;8.90;3.20;;;9.50;99.90;;;;;;4906819;29;20041;-67
2023/03/22 01:11:57;;;;;;;7.65;2.83;;;9.50;99.90;;;;;;4909514;29;20630;-67
2023/03/22 01:14:24;;;;;;;10.07;3.28;;;9.40;99.90;;;;;;4904806;29;20048;-67
2023/03/22 01:16:53;;;;;;;12.20;3.72;;;9.40;99.90;;;;;;4906402;29;20067;-67
2023/03/22 01:19:20;;;;;;;8.25;2.92;;;9.50;99.90;;;;;;4909917;29;20500;-67
2023/03/22 01:21:46;;;;;;;9.77;2.85;;;9.40;99.90;;;;;;4904993;29;20401;-67
2023/03/22 01:24:11;;;;;;;10.75;2.55;;;9.40;99.90;;;;;;4908076;29;20544;-67
2023/03/22 01:26:37;;;;;;;8.02;2.55;;;9.50;99.90;;;;;;4908058;29;20161;-67
2023/03/22 01:29:04;;;;;;;9.32;2.75;;;9.40;99.90;;;;;;4908151;29;20056;-67
2023/03/22 01:31:29;;;;;;;8.43;2.70;;;9.40;99.90;;;;;;4910016;29;20040;-67
2023/03/22 01:33:55;;;;;;;7.95;2.20;;;9.40;99.90;;;;;;4909472;29;20114;-67
2023/03/22 01:36:21;;;;;;;10.23;3.03;;;9.50;99.90;;;;;;4905345;29;20032;-66
2023/03/22 01:38:47;;;;;;;10.27;2.97;;;9.50;99.90;;;;;;4910967;29;20483;-67
2023/03/22 01:41:13;;;;;;;11.05;2.17;;;9.50;99.90;;;;;;4907756;29;20202;-68
2023/03/22 01:43:39;;;;;;;12.98;2.80;;;9.50;99.90;;;;;;4913648;29;20483;-66
2023/03/22 01:46:05;;;;;;;8.95;2.42;;;9.40;99.90;;;;;;4937070;29;20043;-67
2023/03/22 01:48:47;;;;;;;7.20;2.10;;;9.40;99.90;;;;;;4909730;29;20032;-67
2023/03/22 01:51:19;;;;;;;7.38;2.00;;;9.50;99.90;;;;;;4905172;29;20048;-67
2023/03/22 01:54:06;;;;;;;10.77;2.15;;;9.50;99.90;;;;;;4908658;29;20224;-67
2023/03/22 01:56:35;;;;;;;9.40;2.08;;;9.50;99.90;;;;;;4904649;29;20133;-67
2023/03/22 01:59:02;;;;;;;10.50;2.25;;;9.50;99.90;;;;;;4907816;29;20115;-67
2023/03/22 02:01:29;;;;;;;12.15;2.30;;;9.50;99.90;;;;;;4912152;29;20064;-68
2023/03/22 02:04:06;;;;;;;8.70;2.35;;;9.50;99.90;;;;;;4907808;29;20127;-67
2023/03/22 02:06:36;;;;;;;12.02;2.50;;;9.50;99.90;;;;;;4937881;29;20075;-67
2023/03/22 02:09:08;;;;;;;14.15;3.05;;;9.50;99.90;;;;;;4912057;29;20107;-67
2023/03/22 02:11:37;;;;;;;9.27;2.45;;;9.50;99.90;;;;;;4902318;29;20047;-67
2023/03/22 02:14:40;;;;;;;8.60;2.33;;;9.50;99.90;;;;;;4907786;29;20047;-66
2023/03/22 02:17:32;;;;;;;9.43;2.63;;;9.50;99.90;;;;;;4907036;29;20404;-67
2023/03/22 02:20:09;;;;;;;7.97;2.28;;;9.40;99.90;;;;;;4935094;28;20083;-68
2023/03/22 02:22:56;;;;;;;11.00;2.38;;;9.40;99.90;;;;;;4934143;29;20131;-66
2023/03/22 02:25:34;;;;;;;10.43;2.90;;;9.40;99.90;;;;;;4937986;28;20108;-66
2023/03/22 02:28:38;;;;;;;7.47;2.25;;;9.40;99.90;;;;;;4909776;29;20044;-67
2023/03/22 02:31:28;;;;;;;5.82;2.20;;;9.40;99.90;;;;;;4910217;29;20044;-68
2023/03/22 02:34:15;;;;;;;11.00;2.63;;;9.40;99.90;;;;;;4909784;29;20048;-68
2023/03/22 02:37:18;;;;;;;9.07;2.17;;;9.40;99.90;;;;;;4907528;29;20048;-68
2023/03/22 02:40:08;;;;;;;6.70;2.45;;;9.40;99.90;;;;;;4907163;29;20112;-67
2023/03/22 02:42:52;;;;;;;8.68;3.03;;;9.40;99.90;;;;;;4907763;29;20697;-67
2023/03/22 02:45:40;;;;;;;10.20;2.60;;;9.40;99.90;;;;;;4935909;28;20052;-67
2023/03/22 02:48:17;;;;;;;7.72;2.90;;;9.40;99.90;;;;;;4914721;29;20292;-67
2023/03/22 02:50:55;;;;;;;11.07;2.35;;;9.40;99.90;;;;;;4909670;29;20116;-67
2023/03/22 02:53:33;;;;;;;9.05;2.50;;;9.40;99.90;;;;;;4909056;29;20143;-67
2023/03/22 02:56:08;;;;;;;9.45;3.03;;;9.40;99.90;;;;;;4908338;29;20048;-68
2023/03/22 02:58:52;;;;;;;9.20;2.55;;;9.40;99.90;;;;;;4937614;29;20092;-67
2023/03/22 03:01:29;;;;;;;9.98;2.83;;;9.40;99.90;;;;;;4907698;29;20052;-67
2023/03/22 03:03:59;;;;;;;8.25;2.50;;;9.40;99.90;;;;;;4907279;29;20076;-67
2023/03/22 03:06:29;;;;;;;9.57;3.17;;;9.40;99.90;;;;;;4901161;29;20472;-67
2023/03/22 03:08:57;;;;;;;9.98;3.33;;;9.40;99.90;;;;;;4904647;29;20047;-67
2023/03/22 03:11:23;;;;;;;11.15;2.85;;;9.40;99.90;;;;;;4909314;29;20485;-67
2023/03/22 03:13:49;;;;;;;8.30;2.63;;;9.40;99.90;;;;;;4901515;29;20044;-68
2023/03/22 03:16:20;;;;;;;7.70;2.65;;;9.40;99.90;;;;;;4909032;29;20051;-67
2023/03/22 03:19:00;;;;;;;11.32;2.95;;;9.30;99.90;;;;;;4900133;29;20048;-67
2023/03/22 03:21:48;;;;;;;9.23;3.20;;;9.30;99.90;;;;;;4906790;29;20123;-67
2023/03/22 03:24:45;;;;;;;7.15;2.63;;;9.30;99.90;;;;;;4888322;29;20056;-67
2023/03/22 03:27:26;;;;;;;9.55;2.58;;;9.30;99.90;;;;;;4905214;29;20056;-67
2023/03/22 03:30:14;;;;;;;9.27;2.72;;;9.30;99.90;;;;;;4903893;29;20036;-67
2023/03/22 03:32:54;;;;;;;8.00;2.40;;;9.30;99.90;;;;;;4903508;29;20119;-67
2023/03/22 03:35:24;;;;;;;12.73;2.60;;;9.30;99.90;;;;;;4903215;29;20048;-68
2023/03/22 03:37:57;;;;;;;11.77;2.70;;;9.30;99.90;;;;;;4940879;29;20036;-67
2023/03/22 03:40:31;;;;;;;11.43;3.17;;;9.30;99.90;;;;;;4906527;29;20311;-67
2023/03/22 03:43:01;;;;;;;10.27;2.47;;;9.30;99.90;;;;;;4902312;29;20096;-68
2023/03/22 03:45:28;;;;;;;7.22;2.45;;;9.30;99.90;;;;;;4901895;29;20040;-67
2023/03/22 03:47:59;;;;;;;10.27;2.58;;;9.30;99.90;;;;;;4904266;29;20055;-67
2023/03/22 03:50:25;;;;;;;7.88;1.95;;;9.30;99.90;;;;;;4932925;28;20406;-67
2023/03/22 03:52:53;;;;;;;9.10;2.83;;;9.30;99.90;;;;;;4935218;29;20202;-67
2023/03/22 03:55:20;;;;;;;6.82;2.08;;;9.30;99.90;;;;;;4901932;29;20060;-67
2023/03/22 03:57:46;;;;;;;8.98;2.05;;;9.40;99.90;;;;;;4904740;29;20047;-67
2023/03/22 04:00:15;;;;;;;8.25;2.05;;;9.30;99.90;;;;;;4905951;29;20424;-67
2023/03/22 04:02:42;;;;;;;7.07;2.45;;;9.30;99.90;;;;;;4905311;29;20067;-67
2023/03/22 04:05:09;;;;;;;7.78;2.70;;;9.40;99.90;;;;;;4904764;29;20051;-67
2023/03/22 04:07:35;;;;;;;8.57;2.50;;;9.40;99.90;;;;;;4903609;29;20052;-67
2023/03/22 04:10:00;;;;;;;9.73;3.35;;;9.40;99.90;;;;;;4900064;29;20100;-66
2023/03/22 04:12:26;;;;;;;8.18;3.78;;;9.40;99.90;;;;;;4905396;29;20412;-66
2023/03/22 04:14:52;;;;;;;10.88;3.42;;;9.40;99.90;;;;;;4935933;28;20028;-67
2023/03/22 04:17:17;;;;;;;8.65;4.10;;;9.50;99.90;;;;;;4902946;29;20044;-67
2023/03/22 04:19:46;;;;;;;8.88;4.03;;;9.40;99.90;;;;;;4904858;29;20388;-66
2023/03/22 04:22:13;;;;;;;9.50;4.80;;;9.50;99.90;;;;;;4910297;29;20472;-66
2023/03/22 04:24:43;;;;;;;15.27;5.03;;;9.50;99.90;;;;;;4900206;29;20047;-67
2023/03/22 04:27:09;;;;;;;10.52;5.25;;;9.50;99.90;;;;;;4902225;29;20063;-66
2023/03/22 04:29:36;;;;;;;12.20;6.22;;;9.60;99.90;;;;;;4903308;29;20485;-66
2023/03/22 04:32:05;;;;;;;11.88;6.65;;;9.60;99.90;;;;;;4898110;29;20483;-67
2023/03/22 04:34:39;;;;;;;11.07;6.65;;;9.60;99.90;;;;;;4903298;29;20580;-67
2023/03/22 04:37:11;;;;;;;15.55;6.97;;;9.60;99.90;;;;;;4900984;29;20055;-68
2023/03/22 04:39:37;;;;;;;16.15;8.00;;;9.60;99.90;;;;;;4889315;29;20138;-68
2023/03/22 04:42:03;;;;;;;15.00;8.10;;;9.70;99.90;;;;;;4896281;29;20059;-67
2023/03/22 04:44:28;;;;;;;14.05;8.45;;;9.70;99.90;;;;;;4900321;29;20075;-67
2023/03/22 04:46:54;;;;;;;14.73;8.77;;;9.70;99.90;;;;;;4906576;29;20048;-68
2023/03/22 04:49:20;;;;;;;14.45;9.85;;;9.70;99.90;;;;;;4898722;29;20386;-67
2023/03/22 04:51:46;;;;;;;14.70;10.05;;;9.70;99.90;;;;;;4935188;28;20055;-66
2023/03/22 04:54:12;;;;;;;13.95;8.65;;;9.70;99.90;;;;;;4903223;29;20384;-67
2023/03/22 04:56:38;;;;;;;15.40;9.73;;;9.80;99.90;;;;;;4905902;29;20075;-67
2023/03/22 04:59:04;;;;;;;13.98;10.48;;;9.80;99.90;;;;;;4938829;29;20512;-67
2023/03/22 05:01:29;;;;;;;12.93;9.65;;;9.80;99.90;;;;;;4908720;29;20043;-67
2023/03/22 05:03:55;;;;;;;13.07;9.70;;;9.80;99.90;;;;;;4891957;29;20041;-67
2023/03/22 05:06:21;;;;;;;16.17;10.25;;;9.80;99.90;;;;;;4908895;29;20129;-67
2023/03/22 05:08:46;;;;;;;19.13;10.98;;;9.80;99.90;;;;;;4904760;29;20143;-67
2023/03/22 05:11:15;;;;;;;16.73;11.32;;;9.80;99.90;;;;;;4909288;29;20051;-67
2023/03/22 05:13:41;;;;;;;15.35;10.13;;;9.70;99.90;;;;;;4904662;29;20484;-67
2023/03/22 05:16:08;;;;;;;14.55;10.77;;;9.80;99.90;;;;;;4909929;29;20044;-67
2023/03/22 05:18:36;;;;;;;19.73;11.27;;;9.80;99.90;;;;;;4900475;29;20048;-67
2023/03/22 05:21:05;;;;;;;16.45;11.30;;;9.80;99.90;;;;;;4910844;29;20055;-67
2023/03/22 05:23:31;;;;;;;17.02;10.55;;;9.80;99.90;;;;;;4909083;29;20083;-66
2023/03/22 05:25:57;;;;;;;17.35;11.75;;;9.80;99.90;;;;;;4905902;29;20044;-66
2023/03/22 05:28:26;;;;;;;13.75;11.05;;;9.80;99.90;;;;;;4913353;29;20147;-67
2023/03/22 05:30:51;;;;;;;14.75;11.27;;;9.80;99.90;;;;;;4908401;29;20040;-67
2023/03/22 05:33:20;;;;;;;18.80;11.40;;;9.70;99.90;;;;;;4908060;29;20043;-66
2023/03/22 05:35:48;;;;;;;19.08;11.50;;;9.70;99.90;;;;;;4909178;29;20051;-67
2023/03/22 05:38:16;;;;;;;15.10;11.82;;;9.80;99.90;;;;;;4903690;29;20452;-67
2023/03/22 05:40:43;;;;;;;17.48;11.98;;;9.80;99.90;;;;;;4913349;29;20044;-67
2023/03/22 05:43:10;;;;;;;14.95;11.15;;;9.70;99.90;;;;;;4905510;29;20456;-67
2023/03/22 05:45:36;;;;;;;17.30;11.52;;;9.70;99.90;;;;;;4914362;29;20048;-67
2023/03/22 05:48:02;;;;;;;15.30;11.48;;;9.80;99.90;;;;;;4897666;29;20043;-67
2023/03/22 05:50:28;;;;;;;17.48;11.10;;;9.80;99.90;;;;;;4906753;29;20071;-67
2023/03/22 05:52:55;;;;;;;15.07;10.65;;;9.80;99.90;;;;;;4908669;29;20075;-67
2023/03/22 05:55:22;;;;;;;14.15;10.98;;;9.80;99.90;;;;;;4908046;29;20379;-67
2023/03/22 05:57:50;;;;;;;15.35;10.77;;;9.80;99.90;;;;;;4910229;29;20075;-67
2023/03/22 06:00:17;;;;;;;15.77;11.20;;;9.80;99.90;;;;;;4904939;29;20052;-67
2023/03/22 06:02:45;;;;;;;14.68;10.90;;;9.80;99.90;;;;;;4938923;29;20107;-67
2023/03/22 06:05:12;;;;;;;15.85;11.13;;;9.80;99.90;;;;;;4907574;29;20119;-67
2023/03/22 06:07:39;;;;;;;15.57;10.90;;;9.80;99.90;;;;;;4908972;29;20041;-67
2023/03/22 06:10:06;;;;;;;14.50;10.80;;;9.70;99.90;;;;;;4909509;29;20387;-67
2023/03/22 06:12:32;;;;;;;16.73;11.23;;;9.80;99.90;;;;;;4910027;29;20043;-68
2023/03/22 06:14:58;;;;;;;14.82;10.68;;;9.80;99.90;;;;;;4907499;29;20054;-67
2023/03/22 06:17:24;;;;;;;15.45;11.02;;;9.80;99.90;;;;;;4907442;29;20040;-67
2023/03/22 06:19:50;;;;;;;14.50;10.25;;;9.80;99.90;;;;;;4901919;29;20166;-67
2023/03/22 06:22:17;;;;;;;17.38;11.88;;;9.80;99.90;;;;;;4910649;29;20052;-68
2023/03/22 06:24:42;;;;;;;12.95;10.30;;;9.80;99.90;;;;;;4904034;29;20085;-68
2023/03/22 06:27:08;;;;;;;14.50;10.10;;;9.80;99.90;;;;;;4906103;29;20056;-67
2023/03/22 06:29:34;;;;;;;17.38;11.45;;;9.90;99.90;;;;;;4906555;29;20128;-67
2023/03/22 06:32:01;;;;;;;13.10;9.95;;;9.90;99.90;;;;;;4905555;29;20040;-67
2023/03/22 06:34:27;;;;;;;16.92;10.50;;;9.90;99.90;;;;;;4906170;29;20048;-67
2023/03/22 06:36:53;;;;;;;13.60;10.43;;;10.00;99.90;;;;;;4902883;29;20108;-68
2023/03/22 06:39:20;;;;;;;16.52;10.75;;;10.10;99.90;;;;;;4902016;29;20044;-67
2023/03/22 06:41:46;;;;;;;17.40;10.55;;;10.10;99.90;;;;;;4919912;29;20493;-67
2023/03/22 06:44:11;;;;;;;15.85;10.20;;;10.20;99.90;;;;;;4907307;29;20492;-68
2023/03/22 06:46:37;;;;;;;17.23;10.68;;;10.30;99.90;;;;;;4903756;29;20078;-68
2023/03/22 06:49:03;;;;;;;15.73;9.52;;;10.30;99.90;;;;;;4917904;29;20336;-67
2023/03/22 06:51:29;;;;;;;11.82;9.32;;;10.40;99.90;;;;;;4904561;29;20115;-68
2023/03/22 06:53:55;;;;;;;11.95;8.90;;;10.50;99.90;;;;;;4902147;29;20036;-67
2023/03/22 06:56:21;;;;;;;12.95;9.23;;;10.60;99.90;;;;;;4902705;29;20052;-67
2023/03/22 06:58:48;;;;;;;11.52;8.60;;;10.60;99.90;;;;;;4904221;29;20071;-68
2023/03/22 07:01:13;;;;;;;14.13;9.13;;;10.60;99.90;;;;;;4908635;29;20064;-67
2023/03/22 07:03:39;;;;;;;9.93;8.65;;;10.60;99.90;;;;;;4900660;29;20160;-68
2023/03/22 07:06:07;;;;;;;11.48;8.25;;;10.60;99.90;;;;;;4905184;29;20032;-68
2023/03/22 07:08:33;;;;;;;11.00;8.10;;;10.60;99.90;;;;;;4908463;29;20040;-67
2023/03/22 07:10:59;;;;;;;11.82;7.75;;;10.70;99.90;;;;;;4906669;29;20076;-68
2023/03/22 07:13:25;;;;;;;14.10;8.05;;;10.70;99.90;;;;;;4899117;29;20111;-68
2023/03/22 07:15:59;;;;;;;15.07;7.70;;;10.80;99.90;;;;;;4907712;29;20048;-67
2023/03/22 07:18:26;;;;;;;12.32;7.28;;;10.80;99.90;;;;;;4890106;29;20043;-67
2023/03/22 07:20:52;;;;;;;9.35;6.57;;;10.90;99.90;;;;;;4903566;29;20036;-68
2023/03/22 07:23:18;;;;;;;11.30;6.68;;;10.90;99.90;;;;;;4900682;29;20328;-67
2023/03/22 07:25:45;;;;;;;11.65;7.32;;;10.90;99.90;;;;;;4905329;29;20090;-67
2023/03/22 07:28:11;;;;;;;11.50;7.30;;;10.90;99.90;;;;;;4907361;29;20040;-67
2023/03/22 07:30:37;;;;;;;10.48;7.18;;;11.00;99.90;;;;;;4937797;29;20381;-67
2023/03/22 07:33:04;;;;;;;10.98;6.53;;;11.00;99.90;;;;;;4901381;29;20040;-67
2023/03/22 07:35:30;;;;;;;12.27;6.57;;;11.10;99.90;;;;;;4906330;29;20114;-67
2023/03/22 07:37:56;;;;;;;10.00;6.22;;;11.20;99.90;;;;;;4908296;29;20120;-67
2023/03/22 07:40:22;;;;;;;11.85;6.20;;;11.30;99.90;;;;;;4902407;29;20115;-68
2023/03/22 07:42:49;;;;;;;10.63;5.93;;;11.30;99.90;;;;;;4901419;29;20043;-67
2023/03/22 07:45:15;;;;;;;10.15;5.90;;;11.30;99.90;;;;;;4902845;29;20050;-67
2023/03/22 07:47:42;;;;;;;10.15;5.68;;;11.30;99.90;;;;;;4918696;29;20502;-67
2023/03/22 07:50:11;;;;;;;10.80;5.45;;;11.30;99.90;;;;;;4938084;29;20079;-67
2023/03/22 07:52:37;;;;;;;10.20;5.25;;;11.30;99.90;;;;;;4902350;29;20119;-67
2023/03/22 07:55:04;;;;;;;10.35;5.32;;;11.30;99.90;;;;;;4905156;29;20040;-67
2023/03/22 07:57:29;;;;;;;9.57;4.20;;;11.20;99.90;;;;;;4938486;28;20048;-67
2023/03/22 07:59:55;;;;;;;8.10;4.50;;;11.20;99.90;;;;;;4900224;29;20087;-67
2023/03/22 08:02:22;;;;;;;11.13;4.80;;;11.10;99.90;;;;;;4904382;29;20059;-67
2023/03/22 08:04:49;;;;;;;8.20;4.28;;;11.10;99.90;;;;;;4901271;29;20044;-67
2023/03/22 08:07:17;;;;;;;9.55;4.75;;;11.10;99.90;;;;;;4907898;29;20048;-67
2023/03/22 08:09:44;;;;;;;10.55;4.78;;;11.00;99.90;;;;;;4905277;29;20108;-67
2023/03/22 08:12:10;;;;;;;8.05;4.72;;;11.00;99.90;;;;;;4906084;29;20393;-68
2023/03/22 08:14:36;;;;;;;10.65;4.38;;;11.00;99.90;;;;;;4904068;29;20088;-67
2023/03/22 08:17:04;;;;;;;8.00;3.75;;;11.00;99.90;;;;;;4906010;29;20676;-68
2023/03/22 08:19:30;;;;;;;10.30;4.03;;;11.10;99.90;;;;;;4899495;29;20094;-67
2023/03/22 08:21:56;;;;;;;9.75;4.10;;;11.10;99.90;;;;;;4907208;29;20095;-67
2023/03/22 08:24:22;;;;;;;12.23;4.57;;;11.10;99.90;;;;;;4902827;29;20508;-68
2023/03/22 08:26:51;;;;;;;7.72;3.75;;;11.20;99.90;;;;;;4905224;29;20485;-68
2023/03/22 08:29:17;;;;;;;12.60;4.60;;;11.10;99.90;;;;;;4904027;29;20488;-68
2023/03/22 08:31:43;;;;;;;10.52;4.20;;;11.20;99.90;;;;;;4905748;29;20330;-68
2023/03/22 08:34:09;;;;;;;12.75;4.20;;;11.10;99.90;;;;;;4905159;29;20048;-67
2023/03/22 08:36:37;;;;;;;9.07;3.35;;;11.10;99.90;;;;;;4939827;28;20040;-67
2023/03/22 08:39:04;;;;;;;9.52;3.78;;;11.10;99.90;;;;;;4899441;29;20445;-68
2023/03/22 08:41:30;;;;;;;7.45;3.70;;;11.20;99.90;;;;;;4903910;29;20040;-67
2023/03/22 08:43:56;;;;;;;8.30;3.80;;;11.20;99.90;;;;;;4909716;29;20048;-68
2023/03/22 08:46:22;;;;;;;12.52;3.40;;;11.30;99.90;;;;;;4912695;29;20047;-67
2023/03/22 08:48:49;;;;;;;8.35;3.42;;;11.30;99.90;;;;;;4912242;29;20037;-68
2023/03/22 08:51:17;;;;;;;10.50;3.50;;;11.40;99.90;;;;;;4903875;29;20128;-67
2023/03/22 08:53:42;;;;;;;11.63;3.47;;;11.50;99.90;;;;;;4913638;29;20510;-67
2023/03/22 08:56:08;;;;;;;8.48;3.03;;;11.60;99.90;;;;;;4905016;29;20055;-67
2023/03/22 08:58:35;;;;;;;8.70;3.38;;;11.80;99.90;;;;;;4907972;29;20107;-67
2023/03/22 09:01:01;;;;;;;9.18;3.47;;;11.90;99.90;;;;;;4907384;29;20084;-67
2023/03/22 09:03:27;;;;;;;10.85;3.22;;;12.00;99.90;;;;;;4909410;29;20087;-67
2023/03/22 09:05:52;;;;;;;9.88;3.03;;;12.00;99.90;;;;;;4907356;29;20045;-67
2023/03/22 09:08:19;;;;;;;11.52;3.25;;;12.10;99.90;;;;;;4922472;29;20048;-67
2023/03/22 09:10:51;;;;;;;10.45;3.17;;;12.10;99.90;;;;;;4910518;29;20079;-68
2023/03/22 09:13:17;;;;;;;11.10;2.78;;;12.20;99.90;;;;;;4910394;29;20135;-67
2023/03/22 09:15:45;;;;;;;9.50;3.10;;;12.20;99.90;;;;;;4908192;29;20527;-68
2023/03/22 09:18:11;;;;;;;9.38;3.42;;;12.30;99.90;;;;;;4905574;29;20103;-68
2023/03/22 09:20:37;;;;;;;10.88;3.03;;;12.30;99.90;;;;;;4905978;29;20076;-68
2023/03/22 09:23:03;;;;;;;10.90;3.35;;;12.30;99.90;;;;;;4913027;29;20111;-68
2023/03/22 09:25:29;;;;;;;9.98;2.75;;;12.20;99.90;;;;;;4906158;29;20488;-67
2023/03/22 09:27:55;;;;;;;11.90;2.83;;;12.10;99.90;;;;;;4906894;29;20119;-67
2023/03/22 09:30:20;;;;;;;9.20;2.70;;;12.20;99.90;;;;;;4908389;29;20036;-68
2023/03/22 09:32:46;;;;;;;11.15;3.00;;;12.20;99.90;;;;;;4906570;29;20704;-68
2023/03/22 09:35:12;;;;;;;11.82;2.95;;;12.10;99.90;;;;;;4911665;29;20036;-68
2023/03/22 09:37:38;;;;;;;8.73;2.45;;;12.20;99.90;;;;;;4904915;29;20412;-67
2023/03/22 09:40:05;;;;;;;7.05;2.10;;;12.20;99.90;;;;;;4909114;29;20051;-67
2023/03/22 09:42:39;;;;;;;8.90;2.80;;;12.10;99.90;;;;;;4909343;29;20060;-68
2023/03/22 09:45:13;;;;;;;7.40;2.42;;;12.10;99.90;;;;;;4905615;29;20362;-67
2023/03/22 09:47:45;;;;;;;5.65;2.10;;;12.10;99.90;;;;;;4906752;29;20045;-67
2023/03/22 09:50:26;;;;;;;12.43;2.63;;;12.10;99.90;;;;;;4909309;29;20047;-67
2023/03/22 09:52:52;;;;;;;8.07;2.45;;;12.00;99.90;;;;;;4938879;28;20052;-68
2023/03/22 09:55:34;;;;;;;7.45;2.22;;;11.90;99.90;;;;;;4908065;29;20151;-67
2023/03/22 09:58:17;;;;;;;8.68;2.50;;;11.90;99.90;;;;;;4912341;29;20040;-67
2023/03/22 10:01:01;;;;;;;10.63;3.10;;;11.90;99.90;;;;;;4909624;29;20058;-67
2023/03/22 10:03:46;;;;;;;;;;;11.80;99.90;;;;;;4905370;29;20135;-67
2023/03/22 10:06:20;;;;;;;8.25;2.83;;;11.70;99.90;;;;;;4906296;29;19934;-68
2023/03/22 10:08:49;;;;;;;;;;;11.70;99.90;;;;;;4908144;29;20047;-68
2023/03/22 10:11:33;;;;;;;9.13;2.22;;;11.60;99.90;;;;;;4906655;29;20201;-67
2023/03/22 10:14:27;;;;;;;7.85;2.20;;;11.60;99.90;;;;;;4902455;29;20078;-68
2023/03/22 10:16:56;;;;;;;10.75;2.97;;;11.60;99.90;;;;;;4904596;29;20161;-67
2023/03/22 10:19:35;;;;;;;8.27;2.15;;;11.60;99.90;;;;;;4909934;29;20507;-67
2023/03/22 10:22:03;;;;;;;10.13;2.42;;;11.60;99.90;;;;;;4906821;29;20040;-66
2023/03/22 10:24:34;;;;;;;7.15;2.25;;;11.50;99.90;;;;;;4902290;29;20099;-67
2023/03/22 10:27:00;;;;;;;8.25;2.10;;;11.60;99.90;;;;;;4907920;29;20048;-67
2023/03/22 10:29:38;;;;;;;8.80;2.20;;;11.50;99.90;;;;;;4908786;29;20062;-68
2023/03/22 10:32:20;;;;;;;6.93;2.20;;;11.50;99.90;;;;;;4906237;29;20044;-66
2023/03/22 10:34:46;;;;;;;8.18;2.20;;;11.50;99.90;;;;;;4901118;29;20074;-67
2023/03/22 10:37:25;;;;;;;6.38;2.15;;;11.50;99.90;;;;;;4941855;29;20087;-67
2023/03/22 10:39:56;;;;;;;8.13;2.10;;;11.50;99.90;;;;;;4890136;29;20047;-67
2023/03/22 10:42:25;;;;;;;5.85;1.80;;;11.50;99.90;;;;;;4908714;29;20143;-67
2023/03/22 10:45:07;;;;;;;8.68;2.55;;;11.50;99.90;;;;;;4901498;29;20047;-67
2023/03/22 10:47:46;;;;;;;6.13;2.17;;;11.50;99.90;;;;;;4904403;29;20044;-68
2023/03/22 10:50:27;;;;;;;7.55;2.15;;;11.50;99.90;;;;;;4904432;29;20373;-67
2023/03/22 10:53:22;;;;;;;9.75;2.63;;;11.50;99.90;;;;;;4908093;29;20048;-67
2023/03/22 10:55:48;;;;;;;8.90;2.33;;;11.40;99.90;;;;;;4905447;29;20467;-67
2023/03/22 10:58:22;;;;;;;6.63;2.10;;;11.40;99.90;;;;;;4904881;29;20189;-67
2023/03/22 11:00:52;;;;;;;6.85;2.28;;;11.40;99.90;;;;;;4905004;29;20059;-67
2023/03/22 11:03:43;;;;;;;7.43;2.20;;;11.30;99.90;;;;;;4901470;29;20052;-67
2023/03/22 11:06:17;;;;;;;6.38;2.08;;;11.30;99.90;;;;;;4904039;29;20515;-68
2023/03/22 11:08:49;;;;;;;6.78;2.25;;;11.20;99.90;;;;;;4906423;29;20492;-68
2023/03/22 11:11:25;;;;;;;8.50;2.60;;;11.20;99.90;;;;;;4903294;29;20040;-68
2023/03/22 11:13:57;;;;;;;10.13;2.53;;;11.20;99.90;;;;;;4902231;29;20493;-67
2023/03/22 11:16:23;;;;;;;8.68;2.63;;;11.10;99.90;;;;;;4905439;29;20052;-67
2023/03/22 11:18:50;;;;;;;7.57;2.03;;;11.00;99.90;;;;;;4907460;29;20044;-67
2023/03/22 11:21:17;;;;;;;9.85;2.47;;;11.00;99.90;;;;;;4901519;29;20055;-67
2023/03/22 11:24:06;;;;;;;7.63;2.22;;;11.00;99.90;;;;;;4904361;29;20104;-68
2023/03/22 11:26:34;;;;;;;9.50;2.35;;;10.90;99.90;;;;;;4907397;29;20032;-67
2023/03/22 11:29:16;;;;;;;8.02;2.53;;;10.90;99.90;;;;;;4906915;29;20069;-67
2023/03/22 11:32:00;;;;;;;7.93;3.13;;;10.90;99.90;;;;;;4901923;29;20083;-67
2023/03/22 11:34:30;;;;;;;10.25;2.70;;;10.90;99.90;;;;;;4907015;29;20040;-67
2023/03/22 11:36:59;;;;;;;8.35;2.28;;;10.90;99.90;;;;;;4907790;29;20420;-67
2023/03/22 11:39:27;;;;;;;8.50;2.63;;;11.00;99.90;;;;;;4903962;29;20056;-68
2023/03/22 11:42:05;;;;;;;8.80;3.00;;;11.00;99.90;;;;;;4935085;28;20080;-68
2023/03/22 11:44:33;;;;;;;8.85;2.50;;;11.00;99.90;;;;;;4908208;29;20060;-69
2023/03/22 11:47:01;;;;;;;5.60;2.10;;;11.10;99.90;;;;;;4906428;29;20080;-67
2023/03/22 11:49:56;;;;;;;7.20;2.00;;;11.10;99.90;;;;;;4903952;29;20045;-67
2023/03/22 11:52:25;;;;;;;6.63;2.08;;;11.00;99.90;;;;;;4903550;29;20040;-67
2023/03/22 11:54:53;;;;;;;8.02;2.28;;;11.00;99.90;;;;;;4907420;29;20115;-67
2023/03/22 11:57:25;;;;;;;7.93;2.55;;;11.00;99.90;;;;;;4906088;29;20143;-67
2023/03/22 11:59:57;;;;;;;10.00;2.65;;;11.00;99.90;;;;;;4907066;29;20052;-67
2023/03/22 12:02:37;;;;;;;7.28;2.33;;;11.00;99.90;;;;;;4906013;29;20064;-67
2023/03/22 12:05:14;;;;;;;11.23;2.58;;;11.00;99.90;;;;;;4906446;29;20040;-67
2023/03/22 12:07:41;;;;;;;11.40;2.72;;;11.10;99.90;;;;;;4919200;29;20049;-67
2023/03/22 12:10:15;;;;;;;9.02;2.47;;;11.00;99.90;;;;;;4905144;29;20480;-68
2023/03/22 12:12:51;;;;;;;10.88;2.72;;;11.00;99.90;;;;;;4904272;29;20048;-67
2023/03/22 12:15:22;;;;;;;4.40;2.28;;;11.00;99.90;;;;;;4903660;29;20147;-68
2023/03/22 12:18:00;;;;;;;7.53;2.53;;;11.00;99.90;;;;;;4909268;29;20127;-68
2023/03/22 12:20:36;;;;;;;9.82;2.80;;;11.00;99.90;;;;;;4907781;29;20149;-68
2023/03/22 12:23:14;;;;;;;8.07;2.53;;;11.00;99.90;;;;;;4909624;29;20490;-67
2023/03/22 12:26:00;;;;;;;7.30;2.70;;;10.90;99.90;;;;;;4905448;29;20050;-68
2023/03/22 12:29:18;;;;;;;6.82;2.20;;;10.90;99.90;;;;;;4941205;28;20099;-68
2023/03/22 12:32:04;;;;;;;12.50;2.83;;;10.90;99.90;;;;;;4879981;29;20126;-68
2023/03/22 12:34:45;;;;;;;10.80;2.70;;;10.90;99.90;;;;;;4908104;29;20040;-68
2023/03/22 12:37:17;;;;;;;10.23;2.83;;;10.90;99.90;;;;;;4908937;29;20557;-68
2023/03/22 12:39:49;;;;;;;9.85;2.40;;;10.90;99.90;;;;;;4912428;29;20499;-68
2023/03/22 12:42:21;;;;;;;7.63;2.65;;;10.90;99.90;;;;;;4941595;28;20086;-68
2023/03/22 12:44:49;;;;;;;7.60;2.90;;;10.90;99.90;;;;;;4911376;29;20055;-68
2023/03/22 12:47:23;;;;;;;8.85;3.05;;;10.90;99.90;;;;;;4910851;29;20048;-67
2023/03/22 12:49:59;;;;;;;9.23;2.72;;;10.90;99.90;;;;;;4898504;29;20139;-68
2023/03/22 12:52:49;;;;;;;6.28;2.95;;;10.90;99.90;;;;;;4936290;28;20530;-69
2023/03/22 12:55:39;;;;;;;9.82;3.53;;;10.90;99.90;;;;;;4905623;29;20056;-67
2023/03/22 12:58:07;;;;;;;10.27;3.35;;;10.90;99.90;;;;;;4935724;28;20040;-67
2023/03/22 13:01:03;;;;;;;9.50;3.35;;;10.90;99.90;;;;;;4909841;29;20095;-68
2023/03/22 13:03:38;;;;;;;11.27;3.15;;;10.90;99.90;;;;;;4906788;29;20507;-68